createdAt,value
2019-01-26T00:00:29.298Z,990.55
2019-01-26T00:01:29.311Z,990.53
2019-01-26T00:02:29.327Z,990.52
2019-01-26T00:03:29.346Z,990.51
2019-01-26T00:04:29.361Z,990.5
2019-01-26T00:05:29.371Z,990.52
2019-01-26T00:06:29.384Z,990.48
2019-01-26T00:07:29.400Z,990.48
2019-01-26T00:08:29.413Z,990.47
2019-01-26T00:09:29.427Z,990.51
2019-01-26T00:10:29.442Z,990.5
2019-01-26T00:11:29.460Z,990.46
2019-01-26T00:12:29.470Z,990.45
2019-01-26T00:13:29.485Z,990.46
2019-01-26T00:14:29.503Z,990.49
2019-01-26T00:15:29.524Z,990.41
2019-01-26T00:16:29.529Z,990.43
2019-01-26T00:17:29.545Z,990.41
2019-01-26T00:18:30.953Z,990.4
2019-01-26T00:19:29.575Z,990.38
2019-01-26T00:20:29.588Z,990.37
2019-01-26T00:21:29.601Z,990.38
2019-01-26T00:22:29.616Z,990.33
2019-01-26T00:23:29.635Z,990.34
2019-01-26T00:24:29.646Z,990.36
2019-01-26T00:25:29.660Z,990.32
2019-01-26T00:26:29.675Z,990.35
2019-01-26T00:27:29.694Z,990.34
2019-01-26T00:28:29.703Z,990.36
2019-01-26T00:29:29.718Z,990.36
2019-01-26T00:30:29.732Z,990.4
2019-01-26T00:31:29.747Z,990.39
2019-01-26T00:32:29.765Z,990.36
2019-01-26T00:33:29.779Z,990.34
2019-01-26T00:34:29.790Z,990.3
2019-01-26T00:35:29.807Z,990.3
2019-01-26T00:36:29.824Z,990.33
2019-01-26T00:37:29.867Z,990.27
2019-01-26T00:38:29.853Z,990.33
2019-01-26T00:39:29.867Z,990.27
2019-01-26T00:40:29.878Z,990.29
2019-01-26T00:41:29.892Z,990.26
2019-01-26T00:42:29.907Z,990.25
2019-01-26T00:43:29.922Z,990.27
2019-01-26T00:44:29.936Z,990.22
2019-01-26T00:45:29.950Z,990.27
2019-01-26T00:46:29.968Z,990.27
2019-01-26T00:47:29.980Z,990.22
2019-01-26T00:48:29.993Z,990.22
2019-01-26T00:49:30.009Z,990.21
2019-01-26T00:50:30.023Z,990.21
2019-01-26T00:51:30.038Z,990.21
2019-01-26T00:52:30.056Z,990.22
2019-01-26T00:53:30.066Z,990.26
2019-01-26T00:54:30.086Z,990.23
2019-01-26T00:55:30.095Z,990.24
2019-01-26T00:56:30.114Z,990.24
2019-01-26T00:57:30.125Z,990.22
2019-01-26T00:58:30.141Z,990.22
2019-01-26T00:59:30.155Z,990.24
2019-01-26T01:00:30.169Z,990.19
2019-01-26T01:01:30.183Z,990.18
2019-01-26T01:02:30.201Z,990.2
2019-01-26T01:03:30.236Z,990.2
2019-01-26T01:04:30.230Z,990.23
2019-01-26T01:05:30.242Z,990.21
2019-01-26T01:06:30.256Z,990.21
2019-01-26T01:07:30.271Z,990.22
2019-01-26T01:08:30.289Z,990.24
2019-01-26T01:09:30.300Z,990.2
2019-01-26T01:10:30.314Z,990.19
2019-01-26T01:11:30.332Z,990.22
2019-01-26T01:12:30.343Z,990.2
2019-01-26T01:13:30.358Z,990.25
2019-01-26T01:14:30.373Z,990.23
2019-01-26T01:15:30.391Z,990.26
2019-01-26T01:16:35.790Z,990.27
2019-01-26T01:17:30.422Z,990.21
2019-01-26T01:18:30.434Z,990.22
2019-01-26T01:19:30.450Z,990.2
2019-01-26T01:20:30.460Z,990.16
2019-01-26T01:21:30.476Z,990.19
2019-01-26T01:22:30.491Z,990.12
2019-01-26T01:23:30.562Z,990.15
2019-01-26T01:24:30.519Z,990.12
2019-01-26T01:25:30.537Z,990.1
2019-01-26T01:26:30.547Z,990.05
2019-01-26T01:27:30.563Z,990.06
2019-01-26T01:28:30.577Z,990.07
2019-01-26T01:29:30.591Z,990.08
2019-01-26T01:30:30.610Z,990.08
2019-01-26T01:31:30.622Z,990.14
2019-01-26T01:32:30.635Z,990.08
2019-01-26T01:33:30.652Z,990.05
2019-01-26T01:34:30.667Z,990.05
2019-01-26T01:35:30.679Z,990.08
2019-01-26T01:36:30.692Z,990.05
2019-01-26T01:37:30.708Z,990.1
2019-01-26T01:38:30.723Z,990.07
2019-01-26T01:39:30.795Z,990.07
2019-01-26T01:40:30.752Z,990.09
2019-01-26T01:41:30.766Z,990.07
2019-01-26T01:42:30.785Z,989.99
2019-01-26T01:43:30.796Z,989.94
2019-01-26T01:44:30.811Z,989.95
2019-01-26T01:45:30.829Z,989.95
2019-01-26T01:46:30.838Z,989.88
2019-01-26T01:47:30.856Z,989.92
2019-01-26T01:48:30.868Z,989.92
2019-01-26T01:49:30.884Z,989.88
2019-01-26T01:50:30.898Z,989.85
2019-01-26T01:51:30.913Z,989.89
2019-01-26T01:52:30.945Z,989.88
2019-01-26T01:53:30.943Z,989.86
2019-01-26T01:54:30.957Z,989.85
2019-01-26T01:55:30.973Z,989.89
2019-01-26T01:56:30.989Z,989.83
2019-01-26T01:57:31.001Z,989.84
2019-01-26T01:58:31.019Z,989.86
2019-01-26T01:59:31.030Z,989.85
2019-01-26T02:00:31.045Z,989.82
2019-01-26T02:01:31.064Z,989.81
2019-01-26T02:02:31.073Z,989.81
2019-01-26T02:03:31.093Z,989.82
2019-01-26T02:04:31.103Z,989.79
2019-01-26T02:05:31.118Z,989.81
2019-01-26T02:06:31.140Z,989.76
2019-01-26T02:07:31.148Z,989.81
2019-01-26T02:08:31.166Z,989.77
2019-01-26T02:09:31.179Z,989.8
2019-01-26T02:10:31.196Z,989.81
2019-01-26T02:11:31.211Z,989.84
2019-01-26T02:12:31.223Z,989.82
2019-01-26T02:15:13.905Z,989.78
2019-01-26T02:16:13.920Z,989.8
2019-01-26T02:17:13.935Z,989.82
2019-01-26T02:18:13.949Z,989.74
2019-01-26T02:19:13.964Z,989.77
2019-01-26T02:20:13.981Z,989.76
2019-01-26T02:21:13.994Z,989.77
2019-01-26T02:22:14.008Z,989.73
2019-01-26T02:23:14.022Z,989.7
2019-01-26T02:24:14.036Z,989.76
2019-01-26T02:25:14.053Z,989.74
2019-01-26T02:26:14.068Z,989.74
2019-01-26T02:27:14.081Z,989.74
2019-01-26T02:28:14.098Z,989.72
2019-01-26T02:29:14.111Z,989.74
2019-01-26T02:30:14.127Z,989.71
2019-01-26T02:31:14.145Z,989.76
2019-01-26T02:32:14.156Z,989.74
2019-01-26T02:33:14.169Z,989.73
2019-01-26T02:34:14.185Z,989.75
2019-01-26T02:35:14.201Z,989.73
2019-01-26T02:36:14.214Z,989.76
2019-01-26T02:37:14.233Z,989.78
2019-01-26T02:38:14.245Z,989.75
2019-01-26T02:39:14.259Z,989.75
2019-01-26T02:40:14.271Z,989.7
2019-01-26T02:41:14.288Z,989.67
2019-01-26T02:42:14.302Z,989.72
2019-01-26T02:43:14.316Z,989.71
2019-01-26T02:44:14.332Z,989.76
2019-01-26T02:45:14.347Z,989.72
2019-01-26T02:46:14.361Z,989.7
2019-01-26T02:47:14.374Z,989.7
2019-01-26T02:48:14.390Z,989.72
2019-01-26T02:49:14.404Z,989.72
2019-01-26T02:50:14.421Z,989.74
2019-01-26T02:51:14.433Z,989.71
2019-01-26T02:52:14.449Z,989.69
2019-01-26T02:53:14.464Z,989.67
2019-01-26T02:54:14.478Z,989.68
2019-01-26T02:55:14.492Z,989.68
2019-01-26T02:56:14.509Z,989.69
2019-01-26T02:57:14.522Z,989.7
2019-01-26T02:58:14.538Z,989.67
2019-01-26T02:59:14.558Z,989.7
2019-01-26T03:00:14.567Z,989.65
2019-01-26T03:01:14.582Z,989.66
2019-01-26T03:02:14.595Z,989.66
2019-01-26T03:03:14.610Z,989.62
2019-01-26T03:04:14.626Z,989.62
2019-01-26T03:05:14.639Z,989.54
2019-01-26T03:06:14.656Z,989.57
2019-01-26T03:07:14.671Z,989.56
2019-01-26T03:08:14.685Z,989.52
2019-01-26T03:09:14.698Z,989.58
2019-01-26T03:10:14.715Z,989.5
2019-01-26T03:11:14.734Z,989.55
2019-01-26T03:12:14.744Z,989.49
2019-01-26T03:13:14.757Z,989.45
2019-01-26T03:14:14.771Z,989.49
2019-01-26T03:15:14.787Z,989.42
2019-01-26T03:16:14.803Z,989.37
2019-01-26T03:17:14.816Z,989.38
2019-01-26T03:18:14.832Z,989.34
2019-01-26T03:19:14.846Z,989.31
2019-01-26T03:20:14.861Z,989.29
2019-01-26T03:21:14.875Z,989.35
2019-01-26T03:22:14.890Z,989.31
2019-01-26T03:23:14.905Z,989.37
2019-01-26T03:24:14.919Z,989.34
2019-01-26T03:25:14.934Z,989.28
2019-01-26T03:26:14.950Z,989.17
2019-01-26T03:27:14.965Z,989.16
2019-01-26T03:28:14.979Z,989.22
2019-01-26T03:29:15.002Z,989.14
2019-01-26T03:30:15.007Z,989.16
2019-01-26T03:31:15.025Z,989.13
2019-01-26T03:32:15.047Z,989.19
2019-01-26T03:33:15.124Z,989.2
2019-01-26T03:34:15.068Z,989.14
2019-01-26T03:35:15.082Z,989.16
2019-01-26T03:36:15.096Z,989.19
2019-01-26T03:37:15.110Z,989.19
2019-01-26T03:38:15.127Z,989.14
2019-01-26T03:39:15.142Z,989.18
2019-01-26T03:40:15.157Z,989.23
2019-01-26T03:41:15.172Z,989.17
2019-01-26T03:42:15.185Z,989.15
2019-01-26T03:43:15.202Z,989.16
2019-01-26T03:44:15.216Z,989.12
2019-01-26T03:45:15.236Z,989.19
2019-01-26T03:46:15.243Z,989.17
2019-01-26T03:47:15.257Z,989.13
2019-01-26T03:48:15.274Z,989.14
2019-01-26T03:49:15.288Z,989.12
2019-01-26T03:50:15.303Z,989.14
2019-01-26T03:51:15.319Z,989.15
2019-01-26T03:52:15.335Z,989.07
2019-01-26T03:53:15.347Z,989.11
2019-01-26T03:54:15.362Z,989.06
2019-01-26T03:55:15.382Z,989
2019-01-26T03:56:15.394Z,988.99
2019-01-26T03:57:15.406Z,989.01
2019-01-26T03:58:15.425Z,989.03
2019-01-26T03:59:15.437Z,989.02
2019-01-26T04:00:15.460Z,988.98
2019-01-26T04:01:15.465Z,989.05
2019-01-26T04:02:15.481Z,988.95
2019-01-26T04:03:15.495Z,989.02
2019-01-26T04:04:15.510Z,988.99
2019-01-26T04:05:15.529Z,988.99
2019-01-26T04:06:15.539Z,988.97
2019-01-26T04:07:15.555Z,988.94
2019-01-26T04:08:15.569Z,988.97
2019-01-26T04:09:15.585Z,988.98
2019-01-26T04:10:15.599Z,988.96
2019-01-26T04:11:15.613Z,988.94
2019-01-26T04:12:15.628Z,989
2019-01-26T04:13:15.644Z,988.98
2019-01-26T04:14:15.658Z,988.97
2019-01-26T04:15:15.674Z,988.98
2019-01-26T04:16:15.688Z,988.96
2019-01-26T04:17:21.722Z,988.94
2019-01-26T04:18:15.717Z,988.93
2019-01-26T04:19:15.741Z,988.92
2019-01-26T04:20:15.748Z,988.89
2019-01-26T04:21:15.763Z,988.95
2019-01-26T04:22:15.781Z,988.93
2019-01-26T04:23:15.791Z,988.93
2019-01-26T04:24:15.808Z,988.93
2019-01-26T04:25:15.821Z,988.92
2019-01-26T04:26:15.836Z,988.89
2019-01-26T04:27:15.849Z,988.92
2019-01-26T04:28:15.867Z,988.88
2019-01-26T04:29:15.881Z,988.86
2019-01-26T04:30:15.900Z,988.87
2019-01-26T04:31:15.912Z,988.8
2019-01-26T04:32:15.926Z,988.86
2019-01-26T04:33:15.938Z,988.83
2019-01-26T04:34:15.954Z,988.85
2019-01-26T04:35:15.970Z,988.82
2019-01-26T04:36:15.985Z,988.84
2019-01-26T04:37:15.998Z,988.89
2019-01-26T04:38:16.014Z,988.94
2019-01-26T04:39:16.030Z,988.78
2019-01-26T04:40:16.044Z,988.83
2019-01-26T04:41:16.058Z,988.85
2019-01-26T04:42:16.074Z,988.82
2019-01-26T04:43:16.095Z,988.85
2019-01-26T04:44:16.104Z,988.84
2019-01-26T04:45:16.118Z,988.73
2019-01-26T04:46:16.134Z,988.8
2019-01-26T04:47:16.149Z,988.8
2019-01-26T04:48:16.162Z,988.76
2019-01-26T04:49:16.179Z,988.79
2019-01-26T04:50:16.193Z,988.88
2019-01-26T04:51:16.209Z,988.83
2019-01-26T04:52:16.225Z,988.81
2019-01-26T04:53:16.240Z,988.78
2019-01-26T04:54:16.252Z,988.75
2019-01-26T04:55:16.267Z,988.8
2019-01-26T04:56:16.282Z,988.81
2019-01-26T04:57:16.297Z,988.84
2019-01-26T04:58:16.311Z,988.82
2019-01-26T04:59:16.327Z,988.82
2019-01-26T05:00:16.341Z,988.75
2019-01-26T05:01:16.357Z,988.73
2019-01-26T05:02:16.373Z,988.76
2019-01-26T05:03:16.389Z,988.83
2019-01-26T05:04:16.401Z,988.79
2019-01-26T05:05:16.416Z,988.74
2019-01-26T05:06:16.435Z,988.79
2019-01-26T05:07:16.445Z,988.79
2019-01-26T05:08:16.460Z,988.81
2019-01-26T05:09:16.475Z,988.83
2019-01-26T05:10:16.488Z,988.81
2019-01-26T05:11:16.506Z,988.77
2019-01-26T05:12:16.520Z,988.82
2019-01-26T05:13:16.536Z,988.84
2019-01-26T05:14:16.549Z,988.84
2019-01-26T05:15:16.568Z,988.87
2019-01-26T05:16:16.580Z,988.73
2019-01-26T05:17:16.594Z,988.75
2019-01-26T05:18:16.609Z,988.74
2019-01-26T05:19:16.626Z,988.72
2019-01-26T05:20:16.640Z,988.74
2019-01-26T05:21:16.653Z,988.76
2019-01-26T05:22:16.669Z,988.72
2019-01-26T05:23:16.684Z,988.7
2019-01-26T05:24:16.699Z,988.7
2019-01-26T05:25:16.726Z,988.67
2019-01-26T05:26:16.733Z,988.72
2019-01-26T05:27:16.744Z,988.68
2019-01-26T05:28:16.757Z,988.72
2019-01-26T05:29:16.773Z,988.66
2019-01-26T05:30:16.790Z,988.63
2019-01-26T05:31:16.806Z,988.66
2019-01-26T05:32:16.818Z,988.7
2019-01-26T05:33:16.833Z,988.69
2019-01-26T05:34:16.849Z,988.7
2019-01-26T05:35:16.862Z,988.73
2019-01-26T05:36:16.877Z,988.7
2019-01-26T05:37:16.896Z,988.64
2019-01-26T05:38:16.907Z,988.65
2019-01-26T05:39:16.923Z,988.61
2019-01-26T05:40:16.945Z,988.61
2019-01-26T05:41:16.954Z,988.56
2019-01-26T05:42:16.969Z,988.57
2019-01-26T05:43:16.982Z,988.5
2019-01-26T05:44:16.997Z,988.49
2019-01-26T05:45:17.012Z,988.53
2019-01-26T05:46:17.026Z,988.57
2019-01-26T05:47:17.043Z,988.6
2019-01-26T05:48:17.058Z,988.59
2019-01-26T05:49:17.072Z,988.56
2019-01-26T05:50:17.085Z,988.58
2019-01-26T05:51:17.105Z,988.61
2019-01-26T05:52:17.118Z,988.55
2019-01-26T05:53:17.136Z,988.61
2019-01-26T05:54:17.147Z,988.57
2019-01-26T05:55:17.162Z,988.38
2019-01-26T05:56:17.175Z,988.46
2019-01-26T05:57:17.191Z,988.5
2019-01-26T05:58:17.243Z,988.52
2019-01-26T05:59:17.221Z,988.51
2019-01-26T06:00:17.238Z,988.52
2019-01-26T06:01:17.250Z,988.52
2019-01-26T06:02:17.269Z,988.59
2019-01-26T06:03:17.282Z,988.55
2019-01-26T06:04:17.300Z,988.55
2019-01-26T06:05:17.311Z,988.52
2019-01-26T06:06:17.326Z,988.52
2019-01-26T06:07:17.340Z,988.54
2019-01-26T06:08:17.355Z,988.53
2019-01-26T06:09:17.371Z,988.5
2019-01-26T06:10:17.397Z,988.53
2019-01-26T06:11:17.401Z,988.51
2019-01-26T06:12:17.423Z,988.48
2019-01-26T06:13:17.432Z,988.48
2019-01-26T06:14:17.462Z,988.43
2019-01-26T06:15:17.461Z,988.41
2019-01-26T06:16:17.480Z,988.42
2019-01-26T06:17:17.490Z,988.42
2019-01-26T06:18:17.517Z,988.42
2019-01-26T06:19:17.519Z,988.47
2019-01-26T06:20:17.544Z,988.46
2019-01-26T06:21:17.551Z,988.4
2019-01-26T06:22:17.577Z,988.4
2019-01-26T06:23:17.580Z,988.37
2019-01-26T06:24:17.601Z,988.33
2019-01-26T06:25:17.611Z,988.34
2019-01-26T06:26:17.635Z,988.32
2019-01-26T06:27:17.640Z,988.3
2019-01-26T06:28:17.657Z,988.29
2019-01-26T06:29:17.670Z,988.25
2019-01-26T06:30:17.705Z,988.26
2019-01-26T06:31:17.701Z,988.24
2019-01-26T06:32:17.715Z,988.27
2019-01-26T06:33:17.730Z,988.18
2019-01-26T06:34:17.757Z,988.16
2019-01-26T06:35:17.761Z,988.21
2019-01-26T06:36:17.785Z,988.21
2019-01-26T06:37:17.792Z,988.17
2019-01-26T06:38:17.807Z,988.16
2019-01-26T06:39:17.865Z,988.11
2019-01-26T06:40:17.846Z,988.05
2019-01-26T06:41:17.849Z,988.02
2019-01-26T06:42:17.874Z,988.05
2019-01-26T06:43:17.880Z,988.04
2019-01-26T06:44:17.905Z,988.04
2019-01-26T06:45:17.910Z,988.06
2019-01-26T06:46:17.933Z,988.09
2019-01-26T06:47:17.942Z,988.1
2019-01-26T06:48:17.969Z,988.01
2019-01-26T06:49:17.973Z,988.01
2019-01-26T06:50:18.004Z,988.02
2019-01-26T06:51:18.001Z,988.04
2019-01-26T06:52:18.020Z,988.05
2019-01-26T06:53:18.033Z,988.02
2019-01-26T06:54:18.054Z,988.01
2019-01-26T06:55:18.067Z,988.06
2019-01-26T06:56:18.088Z,988.06
2019-01-26T06:57:18.092Z,988.03
2019-01-26T06:58:18.120Z,988.02
2019-01-26T06:59:18.121Z,988.05
2019-01-26T07:00:18.150Z,988.04
2019-01-26T07:01:18.152Z,988.06
2019-01-26T07:02:18.179Z,988.04
2019-01-26T07:03:18.183Z,988.07
2019-01-26T07:04:18.228Z,988.09
2019-01-26T07:05:18.213Z,988.08
2019-01-26T07:06:18.240Z,988.05
2019-01-26T07:07:18.242Z,988.11
2019-01-26T07:08:18.277Z,988.02
2019-01-26T07:09:18.273Z,988.03
2019-01-26T07:10:18.297Z,988.06
2019-01-26T07:11:18.303Z,988.07
2019-01-26T07:12:18.330Z,988.11
2019-01-26T07:13:18.340Z,988.06
2019-01-26T07:14:18.349Z,988.06
2019-01-26T07:15:18.367Z,988.07
2019-01-26T07:16:18.386Z,988.09
2019-01-26T07:17:18.395Z,988.07
2019-01-26T07:18:18.418Z,988.1
2019-01-26T07:19:18.424Z,988.05
2019-01-26T07:20:18.454Z,988.11
2019-01-26T07:21:18.454Z,988.09
2019-01-26T07:22:18.483Z,988.19
2019-01-26T07:23:18.485Z,988.14
2019-01-26T07:24:18.509Z,988.14
2019-01-26T07:25:18.514Z,988.14
2019-01-26T07:26:18.543Z,988.13
2019-01-26T07:27:18.546Z,988.16
2019-01-26T07:28:18.573Z,988.15
2019-01-26T07:29:18.576Z,988.1
2019-01-26T07:30:18.601Z,988.12
2019-01-26T07:31:18.609Z,988.04
2019-01-26T07:32:18.631Z,988.01
2019-01-26T07:33:18.637Z,988.06
2019-01-26T07:34:18.658Z,988.05
2019-01-26T07:35:18.667Z,988.02
2019-01-26T07:36:18.688Z,988.07
2019-01-26T07:37:18.697Z,988.07
2019-01-26T07:38:18.725Z,988.09
2019-01-26T07:39:18.730Z,988.12
2019-01-26T07:40:18.756Z,988.14
2019-01-26T07:41:18.757Z,988.13
2019-01-26T07:42:18.797Z,988.22
2019-01-26T07:43:18.788Z,988.15
2019-01-26T07:44:18.819Z,988.18
2019-01-26T07:45:18.820Z,988.12
2019-01-26T07:46:18.840Z,988.18
2019-01-26T07:47:18.849Z,988.14
2019-01-26T07:48:18.864Z,988.14
2019-01-26T07:49:18.880Z,988.08
2019-01-26T07:50:18.895Z,988.15
2019-01-26T07:51:18.910Z,988.11
2019-01-26T07:52:18.926Z,988.14
2019-01-26T07:53:18.940Z,988.12
2019-01-26T07:54:19.802Z,988.12
2019-01-26T07:55:18.971Z,988.08
2019-01-26T07:56:18.986Z,988.05
2019-01-26T07:57:19.001Z,988.12
2019-01-26T07:58:19.015Z,988.09
2019-01-26T07:59:20.155Z,988.07
2019-01-26T08:00:19.047Z,988.08
2019-01-26T08:01:19.062Z,988.09
2019-01-26T08:02:19.078Z,988.04
2019-01-26T08:03:19.093Z,987.99
2019-01-26T08:04:19.109Z,988.03
2019-01-26T08:05:19.127Z,988.05
2019-01-26T08:06:19.139Z,987.99
2019-01-26T08:07:19.154Z,988.02
2019-01-26T08:08:19.169Z,987.99
2019-01-26T08:09:19.184Z,987.98
2019-01-26T08:10:19.199Z,987.96
2019-01-26T08:11:19.221Z,987.97
2019-01-26T08:12:19.234Z,988.02
2019-01-26T08:13:19.246Z,988.01
2019-01-26T08:14:19.261Z,987.96
2019-01-26T08:15:19.277Z,988.07
2019-01-26T08:16:19.292Z,988.02
2019-01-26T08:17:19.307Z,988.1
2019-01-26T08:18:23.971Z,988.05
2019-01-26T08:19:19.338Z,988.08
2019-01-26T08:20:19.353Z,988.05
2019-01-26T08:21:19.368Z,988
2019-01-26T08:22:19.383Z,988.02
2019-01-26T08:23:19.399Z,988
2019-01-26T08:24:19.415Z,987.99
2019-01-26T08:25:19.431Z,988.02
2019-01-26T08:26:19.448Z,988
2019-01-26T08:27:19.462Z,988.04
2019-01-26T08:28:19.476Z,988.02
2019-01-26T08:29:19.493Z,988.02
2019-01-26T08:30:19.508Z,988.01
2019-01-26T08:31:19.524Z,988.08
2019-01-26T08:32:19.538Z,988.04
2019-01-26T08:33:19.554Z,988
2019-01-26T08:34:19.570Z,988.02
2019-01-26T08:35:19.586Z,988.07
2019-01-26T08:36:19.601Z,988.11
2019-01-26T08:37:19.615Z,988.1
2019-01-26T08:38:19.632Z,988.1
2019-01-26T08:39:19.646Z,988.06
2019-01-26T08:40:19.664Z,988.1
2019-01-26T08:41:19.678Z,988.08
2019-01-26T08:42:19.704Z,988.11
2019-01-26T08:43:19.708Z,988.06
2019-01-26T08:44:19.740Z,988.09
2019-01-26T08:45:19.738Z,988.16
2019-01-26T08:46:19.770Z,988.11
2019-01-26T08:47:19.771Z,988.06
2019-01-26T08:48:19.801Z,988.1
2019-01-26T08:49:19.802Z,988.15
2019-01-26T08:50:19.832Z,988.08
2019-01-26T08:51:19.834Z,988.06
2019-01-26T08:52:19.861Z,988.09
2019-01-26T08:53:19.864Z,988.11
2019-01-26T08:54:19.893Z,988.15
2019-01-26T08:55:19.895Z,988.14
2019-01-26T08:56:19.918Z,988.17
2019-01-26T08:57:19.925Z,988.1
2019-01-26T08:58:19.942Z,988.12
2019-01-26T08:59:19.957Z,988.09
2019-01-26T09:00:19.973Z,988.12
2019-01-26T09:01:19.988Z,988.1
2019-01-26T09:02:25.387Z,988.13
2019-01-26T09:03:20.019Z,988.12
2019-01-26T09:04:20.035Z,988.11
2019-01-26T09:05:20.053Z,988.22
2019-01-26T09:06:20.067Z,988.1
2019-01-26T09:07:20.080Z,988.09
2019-01-26T09:08:20.096Z,988.16
2019-01-26T09:09:20.111Z,988.15
2019-01-26T09:10:20.128Z,988.14
2019-01-26T09:11:20.144Z,988.12
2019-01-26T09:12:20.158Z,988.13
2019-01-26T09:13:20.175Z,988.15
2019-01-26T09:14:20.190Z,988.15
2019-01-26T09:15:20.204Z,988.15
2019-01-26T09:16:20.220Z,988.11
2019-01-26T09:17:20.237Z,988.16
2019-01-26T09:18:20.251Z,988.2
2019-01-26T09:19:20.266Z,988.17
2019-01-26T09:20:20.283Z,988.19
2019-01-26T09:21:20.302Z,988.16
2019-01-26T09:22:20.314Z,988.17
2019-01-26T09:23:20.380Z,988.2
2019-01-26T09:24:20.345Z,988.2
2019-01-26T09:25:20.362Z,988.21
2019-01-26T09:26:20.376Z,988.2
2019-01-26T09:27:20.392Z,988.2
2019-01-26T09:28:20.458Z,988.22
2019-01-26T09:29:20.426Z,988.19
2019-01-26T09:30:20.439Z,988.17
2019-01-26T09:31:20.455Z,988.13
2019-01-26T09:32:20.469Z,988.07
2019-01-26T09:33:20.485Z,988.13
2019-01-26T09:34:20.501Z,988.16
2019-01-26T09:35:20.516Z,988.17
2019-01-26T09:36:20.533Z,988.16
2019-01-26T09:37:20.548Z,988.24
2019-01-26T09:38:20.563Z,988.2
2019-01-26T09:39:20.579Z,988.21
2019-01-26T09:40:20.595Z,988.26
2019-01-26T09:41:20.610Z,988.22
2019-01-26T09:42:20.627Z,988.18
2019-01-26T09:43:20.693Z,988.31
2019-01-26T09:44:20.657Z,988.23
2019-01-26T09:45:20.676Z,988.25
2019-01-26T09:46:20.689Z,988.26
2019-01-26T09:47:20.705Z,988.28
2019-01-26T09:48:20.770Z,988.22
2019-01-26T09:49:20.737Z,988.33
2019-01-26T09:50:20.753Z,988.32
2019-01-26T09:51:20.766Z,988.31
2019-01-26T09:52:20.783Z,988.35
2019-01-26T09:53:20.800Z,988.39
2019-01-26T09:54:20.813Z,988.34
2019-01-26T09:55:20.830Z,988.3
2019-01-26T09:56:20.849Z,988.33
2019-01-26T09:57:20.862Z,988.34
2019-01-26T09:58:20.878Z,988.3
2019-01-26T09:59:20.894Z,988.29
2019-01-26T10:00:20.911Z,988.36
2019-01-26T10:01:20.925Z,988.29
2019-01-26T10:02:20.942Z,988.25
2019-01-26T10:03:21.007Z,988.27
2019-01-26T10:04:20.974Z,988.28
2019-01-26T10:05:20.989Z,988.28
2019-01-26T10:06:21.003Z,988.26
2019-01-26T10:07:21.020Z,988.27
2019-01-26T10:08:21.089Z,988.2
2019-01-26T10:09:21.051Z,988.26
2019-01-26T10:10:21.067Z,988.27
2019-01-26T10:11:21.083Z,988.23
2019-01-26T10:12:21.099Z,988.28
2019-01-26T10:13:21.112Z,988.3
2019-01-26T10:14:21.130Z,988.27
2019-01-26T10:15:21.145Z,988.25
2019-01-26T10:16:21.162Z,988.29
2019-01-26T10:17:21.177Z,988.28
2019-01-26T10:18:21.192Z,988.3
2019-01-26T10:19:21.208Z,988.28
2019-01-26T10:20:21.225Z,988.25
2019-01-26T10:21:21.240Z,988.29
2019-01-26T10:22:21.254Z,988.23
2019-01-26T10:23:21.322Z,988.19
2019-01-26T10:24:21.286Z,988.2
2019-01-26T10:25:21.302Z,988.24
2019-01-26T10:26:21.318Z,988.22
2019-01-26T10:27:21.334Z,988.25
2019-01-26T10:28:21.402Z,988.25
2019-01-26T10:29:21.366Z,988.18
2019-01-26T10:30:21.382Z,988.24
2019-01-26T10:31:21.397Z,988.25
2019-01-26T10:32:21.414Z,988.28
2019-01-26T10:33:21.431Z,988.31
2019-01-26T10:34:21.446Z,988.27
2019-01-26T10:35:21.460Z,988.21
2019-01-26T10:36:21.477Z,988.26
2019-01-26T10:37:21.493Z,988.24
2019-01-26T10:38:21.508Z,988.23
2019-01-26T10:39:21.525Z,988.26
2019-01-26T10:40:21.540Z,988.22
2019-01-26T10:41:21.557Z,988.26
2019-01-26T10:42:21.571Z,988.19
2019-01-26T10:43:21.638Z,988.21
2019-01-26T10:44:21.607Z,988.14
2019-01-26T10:45:21.620Z,988.15
2019-01-26T10:46:21.636Z,988.13
2019-01-26T10:47:21.652Z,988.13
2019-01-26T10:48:21.718Z,988.16
2019-01-26T10:49:21.686Z,988.2
2019-01-26T10:50:21.698Z,988.12
2019-01-26T10:51:21.715Z,988.13
2019-01-26T10:52:21.730Z,988.07
2019-01-26T10:53:21.748Z,988.14
2019-01-26T10:54:21.764Z,988.1
2019-01-26T10:55:21.778Z,988.12
2019-01-26T10:56:21.795Z,988.09
2019-01-26T10:57:21.810Z,988.07
2019-01-26T10:58:21.826Z,988.1
2019-01-26T10:59:21.843Z,988.05
2019-01-26T11:00:21.861Z,988.08
2019-01-26T11:01:21.873Z,988.07
2019-01-26T11:02:21.891Z,988.14
2019-01-26T11:03:21.906Z,988.1
2019-01-26T11:04:21.921Z,988.1
2019-01-26T11:05:21.938Z,988.07
2019-01-26T11:06:21.954Z,988.11
2019-01-26T11:07:21.970Z,988.09
2019-01-26T11:08:21.986Z,988.11
2019-01-26T11:09:22.001Z,988.1
2019-01-26T11:10:22.019Z,988.09
2019-01-26T11:11:22.035Z,988.07
2019-01-26T11:12:22.064Z,988.1
2019-01-26T11:13:22.066Z,988.1
2019-01-26T11:14:22.094Z,988.12
2019-01-26T11:15:22.097Z,988.13
2019-01-26T11:16:22.113Z,988.1
2019-01-26T11:17:22.131Z,988.08
2019-01-26T11:18:22.152Z,988.12
2019-01-26T11:19:22.160Z,988.13
2019-01-26T11:20:22.183Z,988.1
2019-01-26T11:21:22.194Z,988.09
2019-01-26T11:22:22.212Z,988.12
2019-01-26T11:23:22.276Z,988.07
2019-01-26T11:24:22.244Z,988.08
2019-01-26T11:25:22.276Z,988.04
2019-01-26T11:26:22.277Z,988.04
2019-01-26T11:27:22.291Z,988.06
2019-01-26T11:28:22.306Z,988.05
2019-01-26T11:29:22.323Z,988.04
2019-01-26T11:30:22.337Z,987.98
2019-01-26T11:31:22.354Z,988
2019-01-26T11:32:22.371Z,988.03
2019-01-26T11:33:22.386Z,987.93
2019-01-26T11:34:22.419Z,987.93
2019-01-26T11:35:22.420Z,987.94
2019-01-26T11:36:22.442Z,987.93
2019-01-26T11:37:22.451Z,987.92
2019-01-26T11:38:22.529Z,987.89
2019-01-26T11:39:22.566Z,987.85
2019-01-26T11:40:22.505Z,987.88
2019-01-26T11:41:22.516Z,987.83
2019-01-26T11:42:22.531Z,987.86
2019-01-26T11:43:22.548Z,987.86
2019-01-26T11:44:22.562Z,987.85
2019-01-26T11:45:22.579Z,987.86
2019-01-26T11:46:22.608Z,987.79
2019-01-26T11:47:22.612Z,987.81
2019-01-26T11:48:22.626Z,987.81
2019-01-26T11:49:22.643Z,987.82
2019-01-26T11:50:22.660Z,987.84
2019-01-26T11:51:22.675Z,987.77
2019-01-26T11:52:22.691Z,987.82
2019-01-26T11:53:22.707Z,987.72
2019-01-26T11:54:22.725Z,987.75
2019-01-26T11:55:22.738Z,987.75
2019-01-26T11:56:22.757Z,987.76
2019-01-26T11:57:22.771Z,987.73
2019-01-26T11:58:22.787Z,987.72
2019-01-26T11:59:22.803Z,987.73
2019-01-26T12:00:22.819Z,987.69
2019-01-26T12:01:22.836Z,987.72
2019-01-26T12:02:29.662Z,987.69
2019-01-26T12:03:22.868Z,987.63
2019-01-26T12:04:22.885Z,987.56
2019-01-26T12:05:22.900Z,987.63
2019-01-26T12:06:23.695Z,987.57
2019-01-26T12:07:22.932Z,987.63
2019-01-26T12:08:22.957Z,987.58
2019-01-26T12:09:22.964Z,987.59
2019-01-26T12:10:22.979Z,987.55
2019-01-26T12:11:22.995Z,987.58
2019-01-26T12:12:23.022Z,987.59
2019-01-26T12:13:23.029Z,987.59
2019-01-26T12:14:23.043Z,987.58
2019-01-26T12:15:23.059Z,987.59
2019-01-26T12:16:26.945Z,987.59
2019-01-26T12:17:23.091Z,987.57
2019-01-26T12:18:23.114Z,987.6
2019-01-26T12:19:23.131Z,987.64
2019-01-26T12:20:23.141Z,987.62
2019-01-26T12:21:23.155Z,987.64
2019-01-26T12:22:23.171Z,987.65
2019-01-26T12:23:23.188Z,987.61
2019-01-26T12:24:23.205Z,987.62
2019-01-26T12:25:23.219Z,987.64
2019-01-26T12:26:23.235Z,987.7
2019-01-26T12:27:23.251Z,987.67
2019-01-26T12:28:23.268Z,987.63
2019-01-26T12:29:23.283Z,987.63
2019-01-26T12:30:23.303Z,987.59
2019-01-26T12:31:23.315Z,987.62
2019-01-26T12:32:23.342Z,987.63
2019-01-26T12:33:23.347Z,987.59